»·PEaware :: AAL699 KSJC-KPHX

AAL699 :: KSJC-KPHX

FLIGHT INFORMATION

Flight Status: Arrived
Operator:
American Airlines
More flights by this operator :: More flights under this callsign
Pilot: Alex Silvestri (7186)
Aircraft: AIRBUS A319
(A319)
More flights by this aircraft type
Origin: KSJC Mineta San Jose Intl
United States
Destination: KPHX Phoenix Sky Harbor Intl
United States
More flights between these airports :: More routes between these airports
Route: TECKY3 LOSHN PMD J65 BLH HYDRR1
File this flight plan on PilotEdge
Remarks: PBN / A1B1C1D1O1S1 DOF / 170615 REG / N319SB EET / KZAK0015 KZLA0023 KZAB0103 OPR / AAL RMK / TCAS SIMBRIEF virtualamerican.org
Altitude:
(Current/Filed)
37,000ft
Speed:
(Current/Filed)
452kts
Departed: 14-Jun-17 07:25 PM
Arrived: 14-Jun-17 08:58 PM
Distance/Time
Traveled:
539nm/1:33
Distance/Time
To Go:
Arrived

Flight Plot

Page will automatically refresh every two minutes.

Flight plan parsing failed; only flown route is shown


Map Options




Map Legend


Flown Route
Filed Route
Departure Airport
Arrival Airport
Navaid (VOR, NDB)
Fix

Horizontal Profiles

Position Reports

Time Latitude Longitude Heading Altitude Ground
Speed
14-Jun-17 18:41 37.371586 -121.932126 55 76ft 0kts
14-Jun-17 18:42 37.371586 -121.932126 55 76ft 0kts
14-Jun-17 18:43 37.371586 -121.932126 55 76ft 0kts
14-Jun-17 18:44 37.371586 -121.932126 55 76ft 0kts
14-Jun-17 18:45 37.371586 -121.932126 55 76ft 0kts
14-Jun-17 18:46 37.371586 -121.932126 55 76ft 0kts
14-Jun-17 18:47 37.371586 -121.932126 55 76ft 0kts
14-Jun-17 18:48 37.371586 -121.932126 55 76ft 0kts
14-Jun-17 18:49 37.371586 -121.932126 55 76ft 0kts
14-Jun-17 18:50 37.371586 -121.932126 55 76ft 0kts
14-Jun-17 18:51 37.371586 -121.932126 55 76ft 0kts
14-Jun-17 18:52 37.371586 -121.932126 55 76ft 0kts
14-Jun-17 18:53 37.371586 -121.932126 55 76ft 0kts
14-Jun-17 18:54 37.371586 -121.932126 55 76ft 0kts
14-Jun-17 18:55 37.371586 -121.932126 55 76ft 0kts
14-Jun-17 18:59 37.371586 -121.932126 55 76ft 0kts
14-Jun-17 19:00 37.371586 -121.932126 55 76ft 0kts
14-Jun-17 19:01 37.371586 -121.932126 55 76ft 0kts
14-Jun-17 19:02 37.371586 -121.932126 55 76ft 0kts
14-Jun-17 19:03 37.371586 -121.932126 55 76ft 0kts
14-Jun-17 19:04 37.371586 -121.932126 55 76ft 0kts
14-Jun-17 19:05 37.371586 -121.932126 55 76ft 0kts
14-Jun-17 19:06 37.371586 -121.932126 55 76ft 0kts
14-Jun-17 19:07 37.371586 -121.932126 55 76ft 0kts
14-Jun-17 19:08 37.371586 -121.932126 55 76ft 0kts
14-Jun-17 19:09 37.371586 -121.932126 55 76ft 0kts
14-Jun-17 19:10 37.371586 -121.932126 55 76ft 0kts
14-Jun-17 19:11 37.371586 -121.932126 55 76ft 0kts
14-Jun-17 19:12 37.371586 -121.932126 55 76ft 0kts
14-Jun-17 19:13 37.371586 -121.932126 55 76ft 0kts
14-Jun-17 19:14 37.371586 -121.932126 55 76ft 0kts
14-Jun-17 19:15 37.371586 -121.932126 55 76ft 0kts
14-Jun-17 19:16 37.371586 -121.932126 55 76ft 0kts
14-Jun-17 19:17 37.371586 -121.932126 55 76ft 0kts
14-Jun-17 19:18 37.371441 -121.932529 79 76ft 2kts
14-Jun-17 19:19 37.371692 -121.933463 133 76ft 1kts
14-Jun-17 19:20 37.371693 -121.933463 133 76ft 0kts
14-Jun-17 19:21 37.371563 -121.933340 149 76ft 8kts
14-Jun-17 19:22 37.369457 -121.931482 218 76ft 8kts
14-Jun-17 19:23 37.364813 -121.926937 137 76ft 29kts
14-Jun-17 19:24 37.359898 -121.921491 138 76ft 22kts
14-Jun-17 19:25 37.355388 -121.916508 138 76ft 20kts
14-Jun-17 19:26 37.353016 -121.915580 232 76ft 12kts
14-Jun-17 19:27 37.366298 -121.930636 318 527ft 136kts
14-Jun-17 19:28 37.399911 -121.966605 323 2673ft 209kts
14-Jun-17 19:29 37.457405 -121.946962 67 4894ft 275kts
14-Jun-17 19:30 37.422184 -121.871101 146 5001ft 276kts
14-Jun-17 19:31 37.357861 -121.814299 143 6990ft 286kts
14-Jun-17 19:32 37.294424 -121.749230 137 10563ft 311kts
14-Jun-17 19:33 37.226507 -121.671852 139 13508ft 341kts
14-Jun-17 19:34 37.153713 -121.589532 140 16443ft 359kts
14-Jun-17 19:35 37.077642 -121.503699 140 18945ft 375kts
14-Jun-17 19:36 37.004259 -121.407182 135 21209ft 391kts
14-Jun-17 19:37 36.929480 -121.304528 135 23236ft 405kts
14-Jun-17 19:38 36.852297 -121.199075 135 25019ft 417kts
14-Jun-17 19:39 36.773011 -121.091129 135 26653ft 427kts
14-Jun-17 19:40 36.692172 -120.981392 135 27154ft 432kts
14-Jun-17 19:41 36.606570 -120.874435 140 28531ft 438kts
14-Jun-17 19:42 36.516771 -120.770270 140 29728ft 446kts
14-Jun-17 19:43 36.425596 -120.664216 140 30754ft 453kts
14-Jun-17 19:44 36.332981 -120.556564 140 31697ft 460kts
14-Jun-17 19:45 36.238987 -120.447554 140 32752ft 462kts
14-Jun-17 19:46 36.145298 -120.339203 141 33826ft 460kts
14-Jun-17 19:47 36.051911 -120.231605 142 34826ft 458kts
14-Jun-17 19:48 35.959335 -120.125290 142 35721ft 455kts
14-Jun-17 19:49 35.866562 -120.019143 142 36516ft 452kts
14-Jun-17 19:51 35.786048 -119.900794 131 36943ft 455kts
14-Jun-17 19:52 35.709645 -119.775405 131 36944ft 455kts
14-Jun-17 19:53 35.633842 -119.651820 131 36944ft 454kts
14-Jun-17 19:54 35.557107 -119.527329 132 36944ft 454kts
14-Jun-17 19:55 35.481352 -119.404988 132 36944ft 454kts
14-Jun-17 19:56 35.407069 -119.285453 132 36956ft 453kts
14-Jun-17 19:57 35.328535 -119.159583 132 36954ft 452kts
14-Jun-17 19:58 35.252777 -119.038604 132 36960ft 452kts
14-Jun-17 19:59 35.175172 -118.915109 132 36988ft 452kts
14-Jun-17 20:00 35.098133 -118.792929 132 37070ft 452kts
14-Jun-17 20:01 35.021261 -118.671461 132 37112ft 452kts
14-Jun-17 20:02 34.944428 -118.550490 133 37118ft 451kts
14-Jun-17 20:03 34.867295 -118.429446 133 37093ft 451kts
14-Jun-17 20:04 34.790676 -118.309629 133 37022ft 450kts
14-Jun-17 20:05 34.713239 -118.188957 133 36980ft 450kts
14-Jun-17 20:06 34.638796 -118.067843 125 36977ft 452kts
14-Jun-17 20:07 34.590163 -117.924834 114 36973ft 463kts
14-Jun-17 20:08 34.546436 -117.778163 114 36977ft 463kts
14-Jun-17 20:09 34.502653 -117.631667 114 36976ft 462kts
14-Jun-17 20:10 34.458907 -117.485809 114 36982ft 462kts
14-Jun-17 20:11 34.414531 -117.338444 114 36979ft 464kts
14-Jun-17 20:12 34.370249 -117.192033 114 36984ft 463kts
14-Jun-17 20:13 34.325640 -117.045210 114 37108ft 464kts
14-Jun-17 20:14 34.280192 -116.899286 115 37243ft 465kts
14-Jun-17 20:15 34.234762 -116.753211 115 37262ft 465kts
14-Jun-17 20:16 34.189377 -116.607023 115 37149ft 465kts
14-Jun-17 20:17 34.143752 -116.460275 115 37019ft 465kts
14-Jun-17 20:18 34.098208 -116.314206 115 36953ft 465kts
14-Jun-17 20:19 34.052818 -116.169242 115 36933ft 465kts
14-Jun-17 20:20 34.007290 -116.024430 115 36894ft 465kts
14-Jun-17 20:21 33.960694 -115.876878 116 36865ft 465kts
14-Jun-17 20:22 33.914399 -115.730952 116 36847ft 465kts
14-Jun-17 20:23 33.868071 -115.585542 116 36838ft 465kts
14-Jun-17 20:24 33.821786 -115.441327 116 36832ft 465kts
14-Jun-17 20:25 33.773992 -115.297811 117 36827ft 465kts
14-Jun-17 20:26 33.725693 -115.151611 117 36822ft 465kts
14-Jun-17 20:26 33.686200 -115.031611 116 36818ft 465kts
14-Jun-17 20:27 33.638852 -114.887525 117 36811ft 466kts
14-Jun-17 20:29 33.586200 -114.715516 108 35901ft 472kts
14-Jun-17 20:30 33.557382 -114.565391 107 33412ft 458kts
14-Jun-17 20:31 33.528837 -114.416986 107 30854ft 450kts
14-Jun-17 20:32 33.500962 -114.273557 107 28308ft 434kts
14-Jun-17 20:33 33.473986 -114.136594 106 25835ft 414kts
14-Jun-17 20:33 33.453549 -114.033743 105 24842ft 419kts
14-Jun-17 20:34 33.424581 -113.888366 105 24820ft 423kts
14-Jun-17 20:35 33.397488 -113.752257 105 24781ft 420kts
14-Jun-17 20:36 33.374214 -113.620178 102 21256ft 394kts
14-Jun-17 20:37 33.353031 -113.495241 103 17891ft 368kts
14-Jun-17 20:38 33.331933 -113.378033 103 15897ft 356kts
14-Jun-17 20:39 33.310846 -113.263446 103 15593ft 353kts
14-Jun-17 20:40 33.289589 -113.148982 103 15290ft 351kts
14-Jun-17 20:41 33.274330 -113.035581 88 14987ft 344kts
14-Jun-17 20:42 33.277955 -112.921083 88 14690ft 342kts
14-Jun-17 20:43 33.281379 -112.811155 85 14391ft 322kts
14-Jun-17 20:44 33.291485 -112.705116 83 14116ft 322kts
14-Jun-17 20:45 33.301577 -112.598169 84 13836ft 320kts
14-Jun-17 20:46 33.311384 -112.492949 84 13142ft 315kts
14-Jun-17 20:47 33.320855 -112.390210 84 11995ft 310kts
14-Jun-17 20:48 33.329904 -112.289282 84 10461ft 304kts
14-Jun-17 20:49 33.338920 -112.189885 83 9056ft 281kts
14-Jun-17 20:50 33.346651 -112.104448 83 9005ft 253kts
14-Jun-17 20:51 33.346783 -112.020911 90 7914ft 273kts
14-Jun-17 20:52 33.345873 -111.935389 90 6602ft 245kts
14-Jun-17 20:53 33.345165 -111.854721 90 5353ft 242kts
14-Jun-17 20:54 33.360788 -111.781933 28 4238ft 236kts
14-Jun-17 20:55 33.415741 -111.796007 330 4036ft 206kts
14-Jun-17 20:56 33.441518 -111.838744 265 3614ft 165kts
14-Jun-17 20:57 33.440740 -111.892746 269 2764ft 158kts
14-Jun-17 20:58 33.440777 -111.943828 270 1948ft 145kts
14-Jun-17 20:59 33.440867 -111.992025 270 1215ft 144kts
14-Jun-17 21:00 33.440838 -112.013386 258 1149ft 14kts
14-Jun-17 21:01 33.439090 -112.013132 96 1149ft 15kts
14-Jun-17 21:02 33.439069 -112.003366 90 1149ft 32kts
14-Jun-17 21:03 33.436684 -112.000487 174 1149ft 7kts
14-Jun-17 21:04 33.436454 -111.999711 90 1149ft 0kts
14-Jun-17 21:05 33.436454 -111.999709 90 1149ft 0kts
14-Jun-17 21:06 33.436454 -111.999709 90 1149ft 0kts
14-Jun-17 21:07 33.436454 -111.999709 90 1149ft 0kts
14-Jun-17 21:08 33.436454 -111.999709 90 1149ft 0kts
14-Jun-17 21:09 33.436454 -111.999709 90 1149ft 0kts
14-Jun-17 21:10 33.436454 -111.999709 90 1149ft 0kts
14-Jun-17 21:11 33.436454 -111.999709 90 1149ft 0kts
14-Jun-17 21:12 33.436454 -111.999709 90 1149ft 0kts
14-Jun-17 21:13 33.436454 -111.999709 90 1149ft 0kts
14-Jun-17 21:14 33.436454 -111.999709 90 1149ft 0kts
14-Jun-17 21:15 33.436454 -111.999709 90 1149ft 0kts

Navigation Log

Ident Type
Flight plan parsing failed, navigation log unavailable